Search for airport 
image banner adimage banner adimage banner ad
image banner ad

KMEV - Minden-Tahoe

Located in Minden, United States

ICAO - MEV, IATA - MEV

Data provided by Airmate  

General information

Coordinates: N39°0'2" W119°45'4"
Elevation is 4724 feet MSL.
Magnetic variation is 15° East
View others Airports in Nevada

Operational data

Special qualification required
Current time UTC:
Current local time:
Weather
METAR: KMEV 131135Z AUTO 15007KT 10SM CLR 08/04 A3001 RMK AO2
TAF: KMEV 130530Z 1306/1406 11005KT P6SM FEW250 FM132100 26014G24KT P6SM FEW090 FM140300 23009KT P6SM FEW250
View NOTAMs / SUP AIP / TFR affecting this airport [VIEW]
Communications frequencies: [VIEW]

Runways:

RWY identifierQFULength (ft)Width (ft)SurfaceLDA (ft)
16180°7399100ASPH
34360°7399100ASPH
12135°529975ASPH
30315°529975ASPH

Airport contact information

Address: Minden United States

Other aviation service providers

Flight schools

Sierra Skyport

Sierra Skyport
info@sierraskyport.com+1(775)309-4423

Pacific North Helicopters

Pacific North Helicopters
sindre@pnh-us.com+1(530)214-0711

Soaringnv

Soaringnv
info@soaringnv.com+1(775)782-9595
Rated:
View ratings:
[VIEW]

High Sierra Pilots

High Sierra Pilots
Rated:
View ratings:
[VIEW]

Satellite view of KMEV